Detall de PIREP

Printer-friendly versionPDF version

[2012/08/11 18:31:00]
Flight IATA:CT1004
Pilot Number:026
Company ICAO:CAT
Aircraft Type:DC85/A
PAX:132
Aircraft Registration:PAX
Departing Airport: LEGE
Destination Airport: LPAZ
Alternate Airport:LPPD
Online: VATSIM
Route:MAMUK/N0330F130 B31 BCN/N0390F330 UN975 ELVAR DCT BUSEN/N0430F340 DCT KOMUT DCT 3820N DCT DOKAS
Flight Level:F340
No Slew and time accel
No pause
Crash detect
Detect pilot in Cockpit between each 30 and 45 minutes
18:31 Zero fuel Weight: 177922 Lbs, Fuel Weight: 54085 Lbs
18:31 VATSIM:LEGE 111800Z 01002KT 9999 FEW030CB 28/14 Q1014 RETS
18:31 VATSIM:LPAZ 111800Z 21005KT 9999 FEW021 24/17 Q1025
18:32 VOICE CATALONIAN / SUMMER CHARTER
18:34 Parking Brakes off
18:45 Take-off
18:45 Take off Weight: 230772 Lbs
18:45 Wind: 062º @ 001 Knots Heading: 015º
18:45 POS N41º 54´ 59´´ E002º 46´ 00´´
18:45 Flaps:2 at 169 Knots
18:45 Gear Up: 171 Knots
18:46 Flaps:1 at 161 Knots
18:46 Flaps:0 at 157 Knots
19:00 Wind:060º@009 Knots Heading: 172º Ground Speed: 401 Knots Altitude 15003 ft
19:15 Wind:039º@002 Knots Heading: 251º Ground Speed: 428 Knots Altitude 28937 ft
19:30 Wind:261º@038 Knots Heading: 250º Ground Speed: 449 Knots Altitude 33169 ft
19:45 Wind:250º@054 Knots Heading: 252º Ground Speed: 413 Knots Altitude 33179 ft
20:00 Wind:298º@037 Knots Heading: 257º Ground Speed: 433 Knots Altitude 33198 ft
20:15 Wind:335º@041 Knots Heading: 257º Ground Speed: 444 Knots Altitude 33303 ft
20:28 TOC
20:28 Fuel Weight: 31072 Lb
20:30 Wind:329º@032 Knots Heading: 266º Ground Speed: 452 Knots Altitude 34169 ft
20:45 Wind:327º@030 Knots Heading: 265º Ground Speed: 446 Knots Altitude 34163 ft
21:00 Wind:334º@021 Knots Heading: 274º Ground Speed: 469 Knots Altitude 34166 ft
21:15 Wind:353º@023 Knots Heading: 272º Ground Speed: 478 Knots Altitude 34206 ft
21:30 Wind:342º@020 Knots Heading: 258º Ground Speed: 478 Knots Altitude 34291 ft
21:43 TOD
21:43 Fuel Weight: 16119 Lb
21:45 Wind:306º@019 Knots Heading: 255º Ground Speed: 478 Knots Altitude 32221 ft
22:00 Wind:300º@013 Knots Heading: 260º Ground Speed: 275 Knots Altitude 10403 ft
22:08 Flaps:1 at 183 Knots
22:11 Gear Down: 192 Knots
22:12 Gear Up: 148 Knots
22:15 Wind:310º@005 Knots Heading: 085º Ground Speed: 171 Knots Altitude 1991 ft
22:16 Gear Down: 181 Knots
22:16 Flaps:2 at 157 Knots
22:17 Flaps:3 at 152 Knots
22:17 Flaps:4 at 153 Knots
22:18 Flaps:5 at 144 Knots
22:18 TouchDown:Rate -139 ft/min Speed: 123 Knots
22:18 VATSIM:LPAZ 112130Z VRB04KT 9999 FEW020 22/18 Q1025
22:18 Land
22:18 Wind:309º@005 Knots
22:18 Heading: 170º
22:18 Flight Duration: 03:33
22:18 Landing Weight: 189993 Lbs
22:18 POS N36º 58´ 23´´ W025º 10´ 15´´
22:22 Parking brakes on
22:22 Block to Block Duration: 03:48
22:22 Final Fuel: 11752 Lbls
22:22 Spent Fuel: 42332 Lbls
22:22 Flight Length: 1137 NM
22:22 TOD Land Length: 174 NM

Exportar CSV

Powered by Drupal - Modified by Danger4k